createdAt,value
2022-10-26T00:02:32.847Z,16.80
2022-10-26T00:05:18.554Z,16.90
2022-10-26T00:08:04.407Z,17.00
2022-10-26T00:10:49.763Z,17.00
2022-10-26T00:13:35.719Z,17.00
2022-10-26T00:16:24.885Z,17.00
2022-10-26T00:19:10.311Z,17.00
2022-10-26T00:21:55.709Z,17.10
2022-10-26T00:24:41.658Z,17.00
2022-10-26T00:27:27.117Z,17.10
2022-10-26T00:30:13.019Z,17.00
2022-10-26T00:32:58.492Z,17.00
2022-10-26T00:35:47.643Z,17.00
2022-10-26T00:38:33.135Z,17.00
2022-10-26T00:41:22.054Z,17.00
2022-10-26T00:44:45.444Z,17.10
2022-10-26T00:47:47.209Z,17.00
2022-10-26T00:50:36.829Z,17.00
2022-10-26T00:53:22.954Z,17.00
2022-10-26T00:56:08.989Z,17.00
2022-10-26T00:58:55.686Z,16.90
2022-10-26T01:01:45.434Z,16.90
2022-10-26T01:04:31.075Z,16.90
2022-10-26T01:07:17.014Z,16.80
2022-10-26T01:10:03.306Z,16.70
2022-10-26T01:12:49.600Z,16.70
2022-10-26T01:15:48.290Z,16.70
2022-10-26T01:18:58.966Z,16.70
2022-10-26T01:21:49.371Z,16.70
2022-10-26T01:24:59.182Z,16.70
2022-10-26T01:27:49.415Z,16.60
2022-10-26T01:30:45.782Z,16.60
2022-10-26T01:33:38.426Z,16.60
2022-10-26T01:36:44.290Z,16.50
2022-10-26T01:39:36.700Z,16.60
2022-10-26T01:42:24.027Z,16.50
2022-10-26T01:45:12.626Z,16.60
2022-10-26T01:47:59.733Z,16.60
2022-10-26T01:50:47.966Z,16.50
2022-10-26T01:53:33.861Z,16.50
2022-10-26T01:56:26.037Z,16.50
2022-10-26T01:59:49.113Z,16.50
2022-10-26T02:03:15.847Z,16.50
2022-10-26T02:06:15.298Z,16.50
2022-10-26T02:09:19.534Z,16.50
2022-10-26T02:12:23.019Z,16.50
2022-10-26T02:15:17.766Z,16.40
2022-10-26T02:18:30.193Z,16.40
2022-10-26T02:21:21.774Z,16.40
2022-10-26T02:24:10.489Z,16.40
2022-10-26T02:26:58.027Z,16.30
2022-10-26T02:29:44.725Z,16.40
2022-10-26T02:32:35.230Z,16.30
2022-10-26T02:35:25.521Z,16.30
2022-10-26T02:38:13.100Z,16.30
2022-10-26T02:41:01.158Z,16.40
2022-10-26T02:43:54.466Z,16.30
2022-10-26T02:46:40.737Z,16.30
2022-10-26T02:49:26.614Z,16.30
2022-10-26T02:52:28.303Z,16.40
2022-10-26T02:55:27.573Z,16.40
2022-10-26T02:58:18.464Z,16.40
2022-10-26T03:01:04.696Z,16.40
2022-10-26T03:03:50.177Z,16.40
2022-10-26T03:06:35.926Z,16.40
2022-10-26T03:09:23.541Z,16.40
2022-10-26T03:12:11.424Z,16.40
2022-10-26T03:14:57.211Z,16.40
2022-10-26T03:17:42.803Z,16.40
2022-10-26T03:20:28.403Z,16.50
2022-10-26T03:23:14.146Z,16.40
2022-10-26T03:26:00.425Z,16.40
2022-10-26T03:28:45.958Z,16.40
2022-10-26T03:31:31.442Z,16.30
2022-10-26T03:34:17.342Z,16.30
2022-10-26T03:37:03.245Z,16.30
2022-10-26T03:39:48.906Z,16.20
2022-10-26T03:42:36.238Z,16.20
2022-10-26T03:45:21.997Z,16.20
2022-10-26T03:48:08.446Z,16.20
2022-10-26T03:50:58.182Z,16.20
2022-10-26T03:53:43.666Z,16.10
2022-10-26T03:56:29.411Z,16.10
2022-10-26T03:59:14.918Z,16.00
2022-10-26T04:02:00.768Z,16.00
2022-10-26T04:04:46.473Z,16.00
2022-10-26T04:07:32.153Z,15.90
2022-10-26T04:10:17.816Z,15.80
2022-10-26T04:13:03.315Z,15.90
2022-10-26T04:15:49.195Z,15.90
2022-10-26T04:18:34.839Z,15.90
2022-10-26T04:21:20.606Z,15.90
2022-10-26T04:24:06.361Z,15.80
2022-10-26T04:26:51.800Z,15.80
2022-10-26T04:29:37.470Z,15.80
2022-10-26T04:32:23.382Z,15.70
2022-10-26T04:35:12.038Z,15.70
2022-10-26T04:38:06.361Z,15.70
2022-10-26T04:40:52.235Z,15.70
2022-10-26T04:43:37.749Z,15.70
2022-10-26T04:46:23.567Z,15.70
2022-10-26T04:49:09.378Z,15.70
2022-10-26T04:51:54.874Z,15.70
2022-10-26T04:54:40.448Z,15.70
2022-10-26T04:57:26.331Z,15.70
2022-10-26T05:00:12.256Z,15.70
2022-10-26T05:03:02.642Z,15.70
2022-10-26T05:05:48.468Z,15.70
2022-10-26T05:08:34.554Z,15.70
2022-10-26T05:11:20.105Z,15.70
2022-10-26T05:14:05.824Z,15.70
2022-10-26T05:16:52.114Z,15.60
2022-10-26T05:19:37.567Z,15.60
2022-10-26T05:22:23.289Z,15.60
2022-10-26T05:25:09.213Z,15.60
2022-10-26T05:27:59.100Z,15.60
2022-10-26T05:30:46.036Z,15.60
2022-10-26T05:33:31.671Z,15.60
2022-10-26T05:36:20.579Z,15.60
2022-10-26T05:39:06.370Z,15.60
2022-10-26T05:41:52.201Z,15.60
2022-10-26T05:50:03.935Z,15.60
2022-10-26T05:52:51.137Z,15.60
2022-10-26T05:55:36.961Z,15.60
2022-10-26T05:58:23.425Z,15.60
2022-10-26T06:01:36.644Z,15.60
2022-10-26T06:04:38.818Z,15.60
2022-10-26T06:07:24.882Z,15.60
2022-10-26T06:10:12.268Z,15.60
2022-10-26T06:12:58.727Z,15.60
2022-10-26T06:16:19.602Z,15.70
2022-10-26T06:19:15.693Z,15.70
2022-10-26T06:22:12.091Z,15.70
2022-10-26T06:25:26.570Z,15.80
2022-10-26T06:28:29.567Z,15.90
2022-10-26T06:31:15.456Z,16.00
2022-10-26T06:34:01.584Z,16.00
2022-10-26T06:36:49.760Z,16.10
2022-10-26T06:39:43.705Z,16.20
2022-10-26T06:42:32.224Z,16.30
2022-10-26T06:45:18.540Z,16.30
2022-10-26T06:48:48.778Z,16.50
2022-10-26T06:52:05.427Z,16.90
2022-10-26T06:54:55.865Z,17.30
2022-10-26T06:57:43.537Z,17.50
2022-10-26T07:03:16.230Z,17.50
2022-10-26T07:06:01.936Z,17.60
2022-10-26T07:08:47.596Z,17.60
2022-10-26T07:11:33.383Z,17.70
2022-10-26T07:14:18.847Z,17.80
2022-10-26T07:17:05.832Z,17.90
2022-10-26T07:19:51.414Z,17.90
2022-10-26T07:22:37.633Z,17.90
2022-10-26T07:25:24.791Z,17.90
2022-10-26T07:28:11.832Z,18.00
2022-10-26T07:30:58.826Z,18.10
2022-10-26T07:33:45.411Z,18.30
2022-10-26T07:36:31.165Z,18.40
2022-10-26T07:39:17.020Z,18.60
2022-10-26T07:42:02.476Z,18.70
2022-10-26T07:44:48.530Z,18.80
2022-10-26T07:47:34.372Z,19.00
2022-10-26T07:50:20.318Z,18.90
2022-10-26T07:53:06.041Z,19.00
2022-10-26T07:55:56.293Z,19.20
2022-10-26T07:58:41.634Z,19.30
2022-10-26T08:01:27.582Z,19.30
2022-10-26T08:04:13.054Z,19.40
2022-10-26T08:06:58.712Z,19.40
2022-10-26T08:09:44.503Z,19.40
2022-10-26T08:12:29.946Z,19.50
2022-10-26T08:15:15.854Z,19.50
2022-10-26T08:18:01.365Z,19.60
2022-10-26T08:20:47.325Z,19.60
2022-10-26T08:23:33.834Z,19.70
2022-10-26T08:26:24.650Z,19.70
2022-10-26T08:29:14.790Z,19.80
2022-10-26T08:32:01.114Z,19.90
2022-10-26T08:34:46.730Z,19.60
2022-10-26T08:37:33.370Z,19.90
2022-10-26T08:40:33.029Z,19.90
2022-10-26T08:43:34.767Z,19.90
2022-10-26T08:46:40.300Z,19.90
2022-10-26T08:49:36.532Z,20.00
2022-10-26T08:52:29.742Z,20.00
2022-10-26T08:55:19.196Z,20.10
2022-10-26T08:58:08.102Z,20.10
2022-10-26T09:00:56.425Z,20.10
2022-10-26T09:03:42.570Z,20.10
2022-10-26T09:07:02.285Z,20.10
2022-10-26T09:09:56.785Z,20.10
2022-10-26T09:12:49.961Z,20.10
2022-10-26T09:15:42.073Z,20.20
2022-10-26T09:18:56.679Z,20.30
2022-10-26T09:22:08.998Z,20.30
2022-10-26T09:25:05.401Z,20.40
2022-10-26T09:28:37.386Z,20.50
2022-10-26T09:31:25.155Z,20.60
2022-10-26T09:34:31.805Z,20.50
2022-10-26T09:37:23.166Z,20.60
2022-10-26T09:40:15.686Z,20.70
2022-10-26T09:43:14.191Z,20.80
2022-10-26T09:45:59.711Z,20.90
2022-10-26T09:49:06.547Z,21.10
2022-10-26T09:51:52.350Z,21.20
2022-10-26T09:54:38.145Z,21.30
2022-10-26T09:57:24.716Z,21.40
2022-10-26T10:00:19.032Z,21.50
2022-10-26T10:03:21.306Z,21.60
2022-10-26T10:06:16.021Z,21.70
2022-10-26T10:09:17.760Z,21.80
2022-10-26T10:12:04.605Z,21.80
2022-10-26T10:14:58.829Z,21.90
2022-10-26T10:17:52.943Z,21.90
2022-10-26T10:20:39.124Z,22.00
2022-10-26T10:23:36.087Z,22.10
2022-10-26T10:26:22.933Z,22.10
2022-10-26T10:29:16.284Z,22.20
2022-10-26T10:32:03.029Z,22.30
2022-10-26T10:34:53.870Z,22.30
2022-10-26T10:37:44.206Z,22.40
2022-10-26T10:40:31.537Z,22.40
2022-10-26T10:43:17.440Z,22.30
2022-10-26T10:46:03.090Z,22.30
2022-10-26T10:49:00.785Z,22.20
2022-10-26T10:51:47.356Z,22.20
2022-10-26T10:54:36.200Z,22.20
2022-10-26T10:58:05.977Z,22.30
2022-10-26T11:00:52.205Z,22.30
2022-10-26T11:03:49.864Z,22.20
2022-10-26T11:06:38.174Z,22.20
2022-10-26T11:09:29.085Z,22.30
2022-10-26T11:12:21.394Z,22.30
2022-10-26T11:15:23.659Z,22.30
2022-10-26T11:18:43.634Z,22.40
2022-10-26T11:21:31.448Z,22.40
2022-10-26T11:24:40.726Z,22.40
2022-10-26T11:27:34.523Z,22.50
2022-10-26T11:30:22.578Z,22.50
2022-10-26T11:33:22.209Z,22.50
2022-10-26T11:36:18.539Z,22.50
2022-10-26T11:39:23.568Z,22.60
2022-10-26T11:42:11.998Z,22.60
2022-10-26T11:45:10.375Z,22.60
2022-10-26T11:48:11.492Z,22.60
2022-10-26T11:50:59.650Z,22.70
2022-10-26T11:53:47.368Z,22.70
2022-10-26T11:56:38.831Z,22.70
2022-10-26T11:59:33.148Z,22.70
2022-10-26T12:02:24.771Z,22.70
2022-10-26T12:05:16.425Z,22.70
2022-10-26T12:08:13.075Z,22.70
2022-10-26T12:11:01.815Z,22.70
2022-10-26T12:14:55.727Z,22.70
2022-10-26T12:17:51.709Z,22.70
2022-10-26T12:21:02.542Z,22.80
2022-10-26T12:23:58.873Z,22.70
2022-10-26T12:27:00.759Z,22.70
2022-10-26T12:29:49.242Z,22.70
2022-10-26T12:32:36.486Z,22.70
2022-10-26T12:35:58.712Z,22.70
2022-10-26T12:38:44.644Z,22.60
2022-10-26T12:41:30.563Z,22.60
2022-10-26T12:44:37.435Z,22.60
2022-10-26T12:47:28.986Z,22.60
2022-10-26T12:50:14.666Z,22.50
2022-10-26T12:53:13.383Z,22.50
2022-10-26T12:56:08.428Z,22.50
2022-10-26T13:00:01.601Z,22.50
2022-10-26T13:03:17.849Z,22.60
2022-10-26T13:06:06.246Z,22.50
2022-10-26T13:08:58.587Z,22.50
2022-10-26T13:11:49.933Z,22.50
2022-10-26T13:14:51.773Z,22.50
2022-10-26T13:17:37.993Z,22.50
2022-10-26T13:20:23.510Z,22.50
2022-10-26T13:23:20.906Z,22.50
2022-10-26T13:26:26.534Z,22.50
2022-10-26T13:29:18.152Z,22.50
2022-10-26T13:32:04.315Z,22.50
2022-10-26T13:34:50.640Z,22.50
2022-10-26T13:37:37.577Z,22.50
2022-10-26T13:40:28.884Z,22.60
2022-10-26T13:43:23.255Z,22.60
2022-10-26T13:46:28.049Z,22.50
2022-10-26T13:49:25.199Z,22.50
2022-10-26T13:52:18.105Z,22.60
2022-10-26T13:55:20.718Z,22.60
2022-10-26T13:58:23.071Z,22.60
2022-10-26T14:01:24.567Z,22.60
2022-10-26T14:04:18.104Z,22.60
2022-10-26T14:07:23.262Z,22.50
2022-10-26T14:10:23.795Z,22.50
2022-10-26T14:13:14.236Z,22.50
2022-10-26T14:16:00.155Z,22.50
2022-10-26T14:18:46.531Z,22.40
2022-10-26T14:21:32.019Z,22.40
2022-10-26T14:24:45.278Z,22.40
2022-10-26T14:27:38.446Z,22.40
2022-10-26T14:30:27.817Z,22.30
2022-10-26T14:33:26.104Z,22.30
2022-10-26T14:36:13.177Z,22.30
2022-10-26T14:39:02.774Z,22.30
2022-10-26T14:41:50.472Z,22.20
2022-10-26T14:44:37.408Z,22.20
2022-10-26T14:47:35.539Z,22.10
2022-10-26T14:50:23.337Z,22.10
2022-10-26T14:53:16.391Z,22.10
2022-10-26T14:56:03.375Z,22.00
2022-10-26T14:58:49.533Z,22.00
2022-10-26T15:01:57.175Z,22.00
2022-10-26T15:05:01.234Z,21.90
2022-10-26T15:07:47.048Z,21.90
2022-10-26T15:10:38.963Z,21.90
2022-10-26T15:13:32.251Z,21.90
2022-10-26T15:16:18.093Z,21.90
2022-10-26T15:19:11.862Z,21.80
2022-10-26T15:21:58.083Z,21.80
2022-10-26T15:24:43.455Z,21.80
2022-10-26T15:27:29.214Z,21.80
2022-10-26T15:30:28.978Z,21.70
2022-10-26T15:33:21.911Z,21.70
2022-10-26T15:36:23.446Z,21.60
2022-10-26T15:39:10.218Z,21.60
2022-10-26T15:41:55.987Z,21.50
2022-10-26T15:44:41.410Z,21.50
2022-10-26T15:47:32.953Z,21.40
2022-10-26T15:50:22.755Z,21.40
2022-10-26T15:53:18.163Z,21.30
2022-10-26T15:56:10.736Z,21.30
2022-10-26T15:58:57.576Z,21.30
2022-10-26T16:01:43.478Z,21.20
2022-10-26T16:04:30.383Z,21.10
2022-10-26T16:07:16.487Z,21.10
2022-10-26T16:10:02.064Z,21.00
2022-10-26T16:12:47.956Z,20.90
2022-10-26T16:15:33.411Z,20.90
2022-10-26T16:18:19.081Z,20.80
2022-10-26T16:21:04.973Z,20.80
2022-10-26T16:23:55.122Z,20.70
2022-10-26T16:26:40.970Z,20.70
2022-10-26T16:29:26.530Z,20.60
2022-10-26T16:32:14.075Z,20.60
2022-10-26T16:34:59.769Z,20.50
2022-10-26T16:37:46.025Z,20.50
2022-10-26T16:40:31.510Z,20.40
2022-10-26T16:43:17.254Z,20.40
2022-10-26T16:46:08.714Z,20.30
2022-10-26T16:48:54.857Z,20.30
2022-10-26T16:51:40.493Z,20.20
2022-10-26T16:54:26.362Z,20.20
2022-10-26T16:57:16.751Z,20.10
2022-10-26T17:00:02.649Z,20.10
2022-10-26T17:02:48.437Z,20.10
2022-10-26T17:05:38.277Z,20.00
2022-10-26T17:08:24.317Z,19.90
2022-10-26T17:11:11.022Z,19.90
2022-10-26T18:57:57.183Z,18.50
2022-10-26T19:00:45.929Z,18.40
2022-10-26T19:03:32.211Z,18.40
2022-10-26T19:06:20.425Z,18.40
2022-10-26T19:09:10.119Z,18.40
2022-10-26T19:11:57.996Z,18.30
2022-10-26T19:14:46.866Z,18.30
2022-10-26T19:17:37.919Z,18.30
2022-10-26T19:20:23.580Z,18.20
2022-10-26T19:23:09.272Z,18.20
2022-10-26T19:25:58.773Z,18.20
2022-10-26T19:28:47.566Z,18.20
2022-10-26T19:31:34.163Z,18.20
2022-10-26T19:34:20.440Z,18.20
2022-10-26T19:37:06.470Z,18.10
2022-10-26T19:39:52.138Z,18.10
2022-10-26T19:42:38.044Z,18.10
2022-10-26T19:45:23.860Z,18.10
2022-10-26T19:48:10.141Z,18.10
2022-10-26T19:50:56.210Z,18.10
2022-10-26T19:53:41.943Z,18.10
2022-10-26T19:56:27.774Z,18.00
2022-10-26T19:59:13.369Z,18.00
2022-10-26T20:02:00.468Z,18.00
2022-10-26T20:04:46.123Z,18.00
2022-10-26T20:07:31.786Z,17.90
2022-10-26T20:10:17.868Z,17.90
2022-10-26T20:13:03.639Z,17.90
2022-10-26T20:15:50.662Z,17.90
2022-10-26T20:18:36.521Z,17.90
2022-10-26T20:21:21.988Z,17.90
2022-10-26T20:24:10.444Z,17.80
2022-10-26T20:27:32.194Z,17.80
2022-10-26T20:30:26.577Z,17.80
2022-10-26T20:33:12.585Z,17.80
2022-10-26T20:36:36.221Z,17.80
2022-10-26T20:39:22.403Z,17.80
2022-10-26T20:42:21.934Z,17.80
2022-10-26T20:46:20.204Z,17.80
2022-10-26T20:49:05.973Z,17.80
2022-10-26T20:52:19.557Z,17.80
2022-10-26T20:55:12.276Z,17.80
2022-10-26T20:58:25.722Z,17.80
2022-10-26T21:01:29.358Z,17.80
2022-10-26T21:04:15.134Z,17.80
2022-10-26T21:07:00.845Z,17.80
2022-10-26T21:09:46.512Z,17.80
2022-10-26T21:12:32.377Z,17.80
2022-10-26T21:15:18.129Z,17.70
2022-10-26T21:18:04.255Z,17.70
2022-10-26T21:21:00.101Z,17.70
2022-10-26T21:23:45.561Z,17.60
2022-10-26T21:26:31.467Z,17.60
2022-10-26T21:29:17.313Z,17.60
2022-10-26T21:32:03.386Z,17.60
2022-10-26T21:34:49.232Z,17.60
2022-10-26T21:37:34.946Z,17.60
2022-10-26T21:40:20.738Z,17.60
2022-10-26T21:43:06.437Z,17.60
2022-10-26T21:45:57.215Z,17.60
2022-10-26T21:48:43.642Z,17.60
2022-10-26T21:51:29.639Z,17.60
2022-10-26T21:54:15.346Z,17.60
2022-10-26T21:57:01.122Z,17.60
2022-10-26T21:59:46.645Z,17.60
2022-10-26T22:02:32.379Z,17.60
2022-10-26T22:05:18.295Z,17.50
2022-10-26T22:08:04.206Z,17.50
2022-10-26T22:10:49.750Z,17.50
2022-10-26T22:13:35.505Z,17.50
2022-10-26T22:16:29.854Z,17.50
2022-10-26T22:19:15.749Z,17.50
2022-10-26T22:22:01.295Z,17.50
2022-10-26T22:24:47.311Z,17.40
2022-10-26T22:27:33.374Z,17.40
2022-10-26T22:30:18.999Z,17.40
2022-10-26T22:33:04.646Z,17.40
2022-10-26T22:35:50.488Z,17.30
2022-10-26T22:38:36.646Z,17.30
2022-10-26T22:41:23.507Z,17.30
2022-10-26T22:44:09.190Z,17.30
2022-10-26T22:46:54.897Z,17.30
2022-10-26T22:49:40.444Z,17.20
2022-10-26T22:52:26.365Z,17.20
2022-10-26T22:55:11.820Z,17.20
2022-10-26T22:57:57.491Z,17.20
2022-10-26T23:00:43.487Z,17.20
2022-10-26T23:03:28.957Z,17.20
2022-10-26T23:06:16.984Z,17.20
2022-10-26T23:09:02.647Z,17.20
2022-10-26T23:11:48.567Z,17.20
2022-10-26T23:14:34.178Z,17.20
2022-10-26T23:17:19.958Z,17.10
2022-10-26T23:20:06.450Z,17.10
2022-10-26T23:22:52.364Z,17.10
2022-10-26T23:25:37.995Z,17.10
2022-10-26T23:28:23.878Z,17.10
2022-10-26T23:31:17.765Z,17.10
2022-10-26T23:34:03.545Z,17.00
2022-10-26T23:36:50.568Z,17.00
2022-10-26T23:39:36.458Z,17.00
2022-10-26T23:42:22.191Z,17.00
2022-10-26T23:45:08.605Z,16.90
2022-10-26T23:47:54.413Z,16.90
2022-10-26T23:50:43.346Z,16.90
2022-10-26T23:53:29.286Z,16.80
2022-10-26T23:56:14.952Z,16.80
2022-10-26T23:59:07.355Z,16.80
